Time;durP1;ratioP1;P1;durP2;ratioP2;P2;SDS_P1;SDS_P2;PMS_P1;PMS_P2;Temp;Humidity;BMP_temperature;BMP_pressure;BME280_temperature;BME280_humidity;BME280_pressure;Samples;Min_cycle;Max_cycle;Signal;HPM_P1;HPM_P2
2024/02/08 00:00:04;;;;;;;166.32;154.65;;;1.30;99.90;;;;;;12570235;28;20530;-34
2024/02/08 00:06:16;;;;;;;167.50;155.63;;;1.30;99.90;;;;;;12582391;28;20518;-35
2024/02/08 00:12:28;;;;;;;170.93;158.15;;;1.40;99.90;;;;;;12585211;28;20098;-35
2024/02/08 00:18:40;;;;;;;177.80;164.98;;;1.40;99.90;;;;;;12583956;28;20092;-36
2024/02/08 00:24:56;;;;;;;173.93;161.73;;;1.40;99.90;;;;;;12583686;28;20099;-35
2024/02/08 00:31:08;;;;;;;187.40;174.20;;;1.40;99.90;;;;;;12581522;28;20045;-35
2024/02/08 00:37:20;;;;;;;184.18;171.20;;;1.40;99.90;;;;;;12572198;28;20064;-35
2024/02/08 00:43:33;;;;;;;179.20;166.02;;;1.50;99.90;;;;;;12574972;28;20098;-35
2024/02/08 00:49:48;;;;;;;174.93;162.55;;;1.50;99.90;;;;;;12582470;28;20098;-35
2024/02/08 00:56:00;;;;;;;179.10;166.45;;;1.70;99.90;;;;;;12585566;28;20060;-35
2024/02/08 01:02:12;;;;;;;182.13;168.52;;;1.80;99.90;;;;;;12578239;28;20060;-36
2024/02/08 01:08:23;;;;;;;179.25;166.02;;;1.80;99.90;;;;;;12560478;28;20053;-35
2024/02/08 01:14:37;;;;;;;186.18;172.38;;;1.60;99.90;;;;;;12561794;28;20513;-35
2024/02/08 01:20:50;;;;;;;189.85;175.90;;;1.60;99.90;;;;;;12581238;28;20055;-35
2024/02/08 01:27:04;;;;;;;196.25;182.20;;;1.60;99.90;;;;;;12562990;28;20087;-35
2024/02/08 01:33:16;;;;;;;193.37;179.63;;;1.40;99.90;;;;;;12573713;28;20076;-35
2024/02/08 01:39:28;;;;;;;189.90;176.50;;;1.40;99.90;;;;;;12581588;28;20060;-36
2024/02/08 01:45:41;;;;;;;189.98;176.55;;;1.50;99.90;;;;;;12579620;28;20558;-36
2024/02/08 01:52:12;;;;;;;191.30;177.52;;;1.60;99.90;;;;;;12585007;28;20041;-35
2024/02/08 01:58:26;;;;;;;198.63;184.60;;;1.60;99.90;;;;;;12581209;28;20101;-35
2024/02/08 02:04:39;;;;;;;;;;;1.60;99.90;;;;;;12588256;28;20106;-35
2024/02/08 02:11:08;;;;;;;201.18;185.93;;;1.60;99.90;;;;;;12583594;28;19943;-36
2024/02/08 02:17:26;;;;;;;203.20;188.45;;;1.50;99.90;;;;;;12586917;28;20068;-36
2024/02/08 02:23:38;;;;;;;204.07;189.45;;;1.50;99.90;;;;;;12588775;28;20045;-36
2024/02/08 02:29:54;;;;;;;203.32;188.65;;;1.50;99.90;;;;;;12583293;28;20052;-35
2024/02/08 02:36:12;;;;;;;194.60;180.63;;;1.60;99.90;;;;;;12584908;28;20056;-35
2024/02/08 02:42:25;;;;;;;203.55;188.48;;;1.60;99.90;;;;;;12588921;28;20056;-34
2024/02/08 02:48:40;;;;;;;201.18;186.65;;;1.70;99.90;;;;;;12583292;28;20490;-36
2024/02/08 02:54:53;;;;;;;207.65;193.15;;;1.70;99.90;;;;;;12580374;28;20044;-35
2024/02/08 03:01:08;;;;;;;210.27;195.35;;;1.80;99.90;;;;;;12584128;28;20053;-34
2024/02/08 03:07:19;;;;;;;213.77;198.27;;;1.80;99.90;;;;;;12581641;28;20532;-34
2024/02/08 03:13:34;;;;;;;216.75;200.70;;;1.80;99.90;;;;;;12577989;28;20512;-34
2024/02/08 03:19:46;;;;;;;233.65;216.75;;;1.50;99.90;;;;;;12587584;28;20060;-35
2024/02/08 03:25:58;;;;;;;234.75;218.13;;;1.30;99.90;;;;;;12572132;28;20041;-35
2024/02/08 03:32:11;;;;;;;236.63;219.98;;;1.20;99.90;;;;;;12592055;28;20679;-34
2024/02/08 03:38:24;;;;;;;236.60;219.77;;;1.20;99.90;;;;;;12561136;28;20109;-35
2024/02/08 03:44:36;;;;;;;244.98;227.77;;;1.20;99.90;;;;;;12581354;28;20056;-35
2024/02/08 03:50:51;;;;;;;247.98;230.35;;;1.20;99.90;;;;;;12590768;28;20082;-34
2024/02/08 03:57:07;;;;;;;245.55;228.13;;;1.20;99.90;;;;;;12571121;28;20055;-35
2024/02/08 04:09:56;;;;;;;242.38;225.13;;;1.30;99.90;;;;;;12558963;28;20049;-35
2024/02/08 04:55:10;;;;;;;244.73;227.52;;;1.60;99.90;;;;;;12586957;28;20109;-36
2024/02/08 05:01:22;;;;;;;241.63;225.13;;;1.50;99.90;;;;;;12577017;28;20052;-36
2024/02/08 05:07:34;;;;;;;246.68;229.57;;;1.50;99.90;;;;;;12564492;28;20408;-36
2024/02/08 05:13:50;;;;;;;269.00;250.88;;;1.50;99.90;;;;;;12581387;28;20044;-35
2024/02/08 05:20:04;;;;;;;257.27;239.57;;;1.40;99.90;;;;;;12586864;28;20055;-36
2024/02/08 05:26:25;;;;;;;;;;;1.50;99.90;;;;;;12604413;28;20559;-36
2024/02/08 05:32:39;;;;;;;257.00;239.65;;;1.50;99.90;;;;;;12590656;28;19927;-36
2024/02/08 05:38:56;;;;;;;268.20;249.77;;;1.50;99.90;;;;;;12585494;28;20527;-36
2024/02/08 05:45:20;;;;;;;278.60;259.33;;;1.40;99.90;;;;;;12589908;28;20139;-36
2024/02/08 05:51:33;;;;;;;266.08;248.25;;;1.30;99.90;;;;;;12580166;28;20044;-35
2024/02/08 05:57:46;;;;;;;265.35;247.68;;;1.40;99.90;;;;;;12585762;28;20443;-36
2024/02/08 06:04:02;;;;;;;265.20;247.17;;;1.50;99.90;;;;;;12589025;28;20086;-36
2024/02/08 06:10:22;;;;;;;270.77;252.02;;;1.50;99.90;;;;;;12585621;28;20087;-36
2024/02/08 06:16:45;;;;;;;267.00;249.20;;;1.50;99.90;;;;;;12594250;28;20052;-36
2024/02/08 06:23:01;;;;;;;270.58;251.80;;;1.50;99.90;;;;;;12586935;28;20131;-36
2024/02/08 06:29:18;;;;;;;266.27;247.90;;;1.40;99.90;;;;;;12584973;28;20055;-36
2024/02/08 06:35:35;;;;;;;269.65;251.35;;;1.40;99.90;;;;;;12595116;28;20052;-35
2024/02/08 06:42:07;;;;;;;275.70;256.52;;;1.50;99.90;;;;;;12588508;28;20053;-36
2024/02/08 07:40:26;;;;;;;298.70;278.58;;;1.60;99.90;;;;;;12574717;28;20055;-36
2024/02/08 07:46:40;;;;;;;290.05;270.17;;;1.70;99.90;;;;;;12574784;28;20053;-36
2024/02/08 07:52:58;;;;;;;297.60;277.52;;;1.80;99.90;;;;;;12577326;28;20069;-36
2024/02/08 07:59:15;;;;;;;294.13;273.67;;;2.00;99.90;;;;;;12580200;28;20424;-36
2024/02/08 08:05:31;;;;;;;294.58;274.40;;;2.10;99.90;;;;;;12562081;28;20048;-36
2024/02/08 08:11:45;;;;;;;291.90;271.63;;;2.10;99.90;;;;;;12581187;28;20198;-36
2024/02/08 08:17:59;;;;;;;299.97;279.57;;;2.30;99.90;;;;;;12567303;28;20056;-37
2024/02/08 08:24:25;;;;;;;300.75;280.45;;;2.30;99.90;;;;;;12587561;28;20060;-35
2024/02/08 08:30:53;;;;;;;285.70;266.10;;;2.50;99.90;;;;;;12587037;28;20139;-36
2024/02/08 08:37:38;;;;;;;297.35;277.13;;;2.70;99.90;;;;;;12587586;28;20083;-35
2024/02/08 08:43:42;;;;;;;287.58;267.92;;;2.50;99.90;;;;;;12562666;28;20056;-36
2024/02/08 08:49:56;;;;;;;282.85;263.63;;;2.60;99.90;;;;;;12583653;28;20052;-35
2024/02/08 08:56:10;;;;;;;269.33;251.18;;;2.80;99.90;;;;;;12588085;28;20048;-37
2024/02/08 09:02:22;;;;;;;278.67;260.17;;;3.10;99.90;;;;;;12584827;28;20048;-36
2024/02/08 09:08:42;;;;;;;254.93;237.57;;;3.20;99.90;;;;;;12578180;28;20063;-36
2024/02/08 09:15:19;;;;;;;259.90;242.35;;;3.30;99.90;;;;;;12577171;28;20055;-36
2024/02/08 09:21:33;;;;;;;263.92;246.20;;;3.30;99.90;;;;;;12566990;28;20049;-36
2024/02/08 09:28:23;;;;;;;262.00;244.70;;;3.40;99.90;;;;;;12574059;28;20475;-36
2024/02/08 09:34:20;;;;;;;249.18;232.15;;;3.50;99.90;;;;;;12578908;28;20302;-37
2024/02/08 09:53:07;;;;;;;253.65;237.30;;;3.60;99.90;;;;;;12586391;28;20394;-37
2024/02/08 09:59:58;;;;;;;245.18;229.20;;;4.00;99.90;;;;;;12584326;28;20052;-37
2024/02/08 10:05:57;;;;;;;236.52;220.95;;;4.20;99.90;;;;;;12574631;28;20060;-36
2024/02/08 10:12:40;;;;;;;224.82;210.93;;;4.30;99.90;;;;;;12581703;28;20060;-37
2024/02/08 10:19:03;;;;;;;195.68;183.43;;;4.50;99.90;;;;;;12577324;28;20135;-37
2024/02/08 10:31:53;;;;;;;183.85;172.23;;;4.40;99.90;;;;;;12581677;28;20518;-37
2024/02/08 10:38:08;;;;;;;173.10;162.10;;;4.40;99.90;;;;;;12575131;28;20053;-37
2024/02/08 10:44:36;;;;;;;171.13;160.02;;;4.60;99.90;;;;;;12594318;28;20052;-37
2024/02/08 10:50:53;;;;;;;144.80;135.60;;;4.60;99.90;;;;;;12587051;28;20421;-36
2024/02/08 10:57:08;;;;;;;149.50;140.23;;;4.50;99.90;;;;;;12573309;28;20524;-37
2024/02/08 11:03:36;;;;;;;147.63;138.43;;;4.40;99.90;;;;;;12589934;28;20066;-37
2024/02/08 11:09:47;;;;;;;132.82;124.55;;;4.40;99.90;;;;;;12567376;28;20048;-37
2024/02/08 11:16:19;;;;;;;146.27;137.13;;;4.20;99.90;;;;;;12592090;28;20428;-37
2024/02/08 11:22:42;;;;;;;129.80;121.60;;;4.40;99.90;;;;;;12590655;28;20052;-37
2024/02/08 11:29:19;;;;;;;126.05;118.28;;;4.40;99.90;;;;;;12586952;28;20394;-37
2024/02/08 11:36:11;;;;;;;132.13;123.78;;;4.40;99.90;;;;;;12589572;28;20056;-36
2024/02/08 11:42:19;;;;;;;135.15;126.50;;;4.30;99.90;;;;;;12582670;28;20086;-36
2024/02/08 11:48:41;;;;;;;129.23;121.47;;;4.30;99.90;;;;;;12568249;28;20049;-36
2024/02/08 11:55:12;;;;;;;103.85;97.45;;;4.40;99.90;;;;;;12570686;28;20512;-37
2024/02/08 12:01:26;;;;;;;111.10;104.03;;;4.40;99.90;;;;;;12577098;28;20053;-37
2024/02/08 12:07:45;;;;;;;95.67;89.97;;;4.30;99.90;;;;;;12574895;28;20053;-37
2024/02/08 12:14:07;;;;;;;85.18;79.95;;;4.50;99.90;;;;;;12570339;28;20127;-36
2024/02/08 12:20:36;;;;;;;82.55;77.40;;;4.50;99.90;;;;;;12580434;28;20064;-36
2024/02/08 12:26:53;;;;;;;82.10;77.00;;;4.40;99.90;;;;;;12576484;28;20045;-37
2024/02/08 12:33:11;;;;;;;92.40;86.90;;;4.30;99.90;;;;;;12586430;28;20044;-37
2024/02/08 12:39:26;;;;;;;81.88;76.68;;;4.20;99.90;;;;;;12589220;28;20064;-37
2024/02/08 12:45:42;;;;;;;84.85;79.88;;;4.10;99.90;;;;;;12583207;28;20052;-37
2024/02/08 12:51:59;;;;;;;82.33;77.47;;;4.20;99.90;;;;;;12584956;28;20182;-37
2024/02/08 12:58:13;;;;;;;84.50;79.32;;;4.20;99.90;;;;;;12581513;28;20052;-37
2024/02/08 13:04:26;;;;;;;90.50;85.20;;;4.20;99.90;;;;;;12562411;28;20055;-37
2024/02/08 13:10:40;;;;;;;128.53;120.23;;;4.10;99.90;;;;;;12585703;28;20053;-36
2024/02/08 13:16:57;;;;;;;134.80;125.93;;;3.90;99.90;;;;;;12583398;28;20736;-36
2024/02/08 13:23:10;;;;;;;113.05;106.13;;;3.90;99.90;;;;;;12580244;28;20063;-37
2024/02/08 13:29:26;;;;;;;118.53;110.60;;;3.90;99.90;;;;;;12576504;28;20060;-36
2024/02/08 13:35:40;;;;;;;113.78;106.43;;;3.90;99.90;;;;;;12581581;28;20049;-36
2024/02/08 13:41:53;;;;;;;119.80;111.93;;;3.80;99.90;;;;;;12576108;28;20052;-37
2024/02/08 13:48:10;;;;;;;125.18;116.97;;;3.60;99.90;;;;;;12583604;28;20131;-37
2024/02/08 13:54:31;;;;;;;131.82;122.82;;;3.40;99.90;;;;;;12583467;28;20052;-37
2024/02/08 14:00:44;;;;;;;138.40;129.00;;;3.10;99.90;;;;;;12587004;28;20056;-37
2024/02/08 14:06:56;;;;;;;137.57;128.13;;;2.80;99.90;;;;;;12589217;28;20068;-37
2024/02/08 14:13:16;;;;;;;148.25;138.00;;;2.60;99.90;;;;;;12587787;28;20191;-36
2024/02/08 14:19:42;;;;;;;146.63;136.35;;;2.40;99.90;;;;;;12567641;28;20056;-36
2024/02/08 14:32:21;;;;;;;154.60;143.93;;;2.40;99.90;;;;;;12581232;28;20087;-37
2024/02/08 14:38:48;;;;;;;164.97;153.50;;;2.30;99.90;;;;;;12585985;28;20064;-37
2024/02/08 14:45:03;;;;;;;176.02;163.80;;;2.20;99.90;;;;;;12582269;28;20417;-37
2024/02/08 14:57:39;;;;;;;189.48;176.25;;;2.10;99.90;;;;;;12583683;28;20068;-36
2024/02/08 15:03:52;;;;;;;199.07;185.32;;;2.00;99.90;;;;;;12577990;28;20052;-36
2024/02/08 15:10:09;;;;;;;194.02;180.27;;;2.00;99.90;;;;;;12585767;28;20135;-36
2024/02/08 15:16:30;;;;;;;197.93;183.93;;;1.90;99.90;;;;;;12564333;28;20190;-36
2024/02/08 15:22:49;;;;;;;223.98;208.68;;;1.90;99.90;;;;;;12575365;28;20060;-36
2024/02/08 15:29:04;;;;;;;216.40;201.82;;;1.80;99.90;;;;;;12593328;28;20053;-36
2024/02/08 15:35:35;;;;;;;220.90;205.93;;;1.70;99.90;;;;;;12585886;28;20060;-36
2024/02/08 15:42:01;;;;;;;225.38;210.23;;;1.70;99.90;;;;;;12565939;28;20056;-36
2024/02/08 15:48:14;;;;;;;221.82;207.02;;;1.60;99.90;;;;;;12592963;28;20052;-36
2024/02/08 15:54:37;;;;;;;232.85;217.52;;;1.50;99.90;;;;;;12585424;28;20048;-37
2024/02/08 16:07:19;;;;;;;228.18;212.65;;;1.50;99.90;;;;;;12585822;28;20052;-36
2024/02/08 16:13:35;;;;;;;242.43;226.63;;;1.40;99.90;;;;;;12579460;28;20075;-36
2024/02/08 16:19:57;;;;;;;243.88;228.02;;;1.40;99.90;;;;;;12577996;28;20052;-36
2024/02/08 16:26:12;;;;;;;244.73;228.75;;;1.30;99.90;;;;;;12586863;28;20055;-36
2024/02/08 16:32:33;;;;;;;263.77;246.63;;;1.30;99.90;;;;;;12574088;28;20044;-36
2024/02/08 16:38:56;;;;;;;283.15;264.85;;;1.20;99.90;;;;;;12576821;28;20052;-36
2024/02/08 16:45:17;;;;;;;276.92;259.15;;;1.20;99.90;;;;;;12578327;28;20102;-36
2024/02/08 16:51:37;;;;;;;283.77;265.65;;;1.20;99.90;;;;;;12567270;28;20463;-36
2024/02/08 16:58:00;;;;;;;293.83;274.98;;;1.20;99.90;;;;;;12583741;28;20130;-36
2024/02/08 17:04:29;;;;;;;296.67;277.45;;;1.20;99.90;;;;;;12586711;28;20060;-36
2024/02/08 17:10:55;;;;;;;309.88;290.10;;;1.20;99.90;;;;;;12586479;28;20106;-36
2024/02/08 17:17:21;;;;;;;304.50;285.08;;;1.10;99.90;;;;;;12551245;28;20505;-36
2024/02/08 17:23:53;;;;;;;311.70;291.85;;;1.20;99.90;;;;;;12571358;28;20053;-36
2024/02/08 17:37:03;;;;;;;366.48;343.23;;;1.20;99.90;;;;;;12571303;28;20065;-36
2024/02/08 17:43:18;;;;;;;392.00;366.88;;;1.30;99.90;;;;;;12595459;28;20059;-36
2024/02/08 17:49:35;;;;;;;414.65;387.90;;;1.30;99.90;;;;;;12591035;28;20045;-36
2024/02/08 17:55:54;;;;;;;411.88;385.58;;;1.30;99.90;;;;;;12593127;28;20057;-36
2024/02/08 18:02:14;;;;;;;426.08;398.52;;;1.20;99.90;;;;;;12584802;28;20055;-36
2024/02/08 18:08:30;;;;;;;437.70;409.20;;;1.30;99.90;;;;;;12607404;28;20139;-36
2024/02/08 18:14:47;;;;;;;548.05;512.75;;;1.30;99.90;;;;;;12593501;28;20045;-36
2024/02/08 18:21:04;;;;;;;523.30;489.63;;;1.30;99.90;;;;;;12594575;28;20053;-36
2024/02/08 18:27:31;;;;;;;502.40;470.25;;;1.40;99.90;;;;;;12595231;28;20508;-36
2024/02/08 18:33:49;;;;;;;536.72;502.30;;;1.40;99.90;;;;;;12596222;28;20535;-36
2024/02/08 18:40:07;;;;;;;535.92;501.90;;;1.50;99.90;;;;;;12570083;28;20381;-36
2024/02/08 18:46:27;;;;;;;567.90;531.80;;;1.50;99.90;;;;;;12588010;28;20109;-36
2024/02/08 18:52:41;;;;;;;564.15;528.40;;;1.50;99.90;;;;;;12593220;28;20045;-36
2024/02/08 18:58:59;;;;;;;565.33;529.40;;;1.50;99.90;;;;;;12577751;28;20052;-35
2024/02/08 19:05:15;;;;;;;592.17;554.30;;;1.60;99.90;;;;;;12573760;28;20057;-36
2024/02/08 19:11:34;;;;;;;610.70;571.20;;;1.60;99.90;;;;;;12573741;28;20409;-36
2024/02/08 19:17:58;;;;;;;618.28;578.45;;;1.60;99.90;;;;;;12578148;28;20494;-36
2024/02/08 19:24:22;;;;;;;615.92;576.05;;;1.60;99.90;;;;;;12592495;28;20516;-36
2024/02/08 19:30:41;;;;;;;616.50;576.63;;;1.70;99.90;;;;;;12577724;28;20048;-36
2024/02/08 19:36:58;;;;;;;621.45;581.35;;;1.70;99.90;;;;;;12579516;28;20071;-36
2024/02/08 19:43:12;;;;;;;617.97;578.70;;;1.70;99.90;;;;;;12586338;28;20045;-36
2024/02/08 19:49:29;;;;;;;621.00;581.42;;;1.70;99.90;;;;;;12581642;28;20111;-36
2024/02/08 19:55:46;;;;;;;612.50;573.25;;;1.70;99.90;;;;;;12587401;28;20087;-36
2024/02/08 20:02:01;;;;;;;611.58;572.90;;;1.70;99.90;;;;;;12571843;28;20115;-36
2024/02/08 20:08:16;;;;;;;620.88;581.42;;;1.70;99.90;;;;;;12557815;28;20103;-36
2024/02/08 20:14:29;;;;;;;617.33;578.38;;;1.80;99.90;;;;;;12586975;28;20408;-36
2024/02/08 20:20:42;;;;;;;620.78;581.42;;;1.80;99.90;;;;;;12582882;28;20421;-35
2024/02/08 20:26:54;;;;;;;638.55;597.90;;;1.70;99.90;;;;;;12589844;28;20052;-36
2024/02/08 20:33:13;;;;;;;635.90;595.75;;;1.70;99.90;;;;;;12574275;28;20044;-36
2024/02/08 20:39:33;;;;;;;635.42;595.05;;;1.80;99.90;;;;;;12582657;28;20092;-36
2024/02/08 20:45:54;;;;;;;637.78;597.33;;;1.80;99.90;;;;;;12585524;28;20056;-37
2024/02/08 20:52:12;;;;;;;644.60;603.78;;;1.90;99.90;;;;;;12580275;28;20054;-36
2024/02/08 20:58:24;;;;;;;628.75;588.88;;;1.90;99.90;;;;;;12561578;28;20087;-37
2024/02/08 21:04:39;;;;;;;596.78;558.55;;;1.90;99.90;;;;;;12583206;28;20147;-36
2024/02/08 21:11:01;;;;;;;599.42;561.08;;;1.90;99.90;;;;;;12585753;28;20045;-37
2024/02/08 21:17:15;;;;;;;624.47;584.53;;;1.90;99.90;;;;;;12587274;28;20056;-35
2024/02/08 21:23:33;;;;;;;633.22;592.10;;;2.00;99.90;;;;;;12581916;28;20044;-36
2024/02/08 21:29:47;;;;;;;633.90;592.85;;;2.00;99.90;;;;;;12585917;28;20052;-36
2024/02/08 21:36:03;;;;;;;623.53;583.30;;;2.00;99.90;;;;;;12586433;28;20049;-36
2024/02/08 21:42:19;;;;;;;620.83;580.67;;;2.10;99.90;;;;;;12579562;28;20425;-36
2024/02/08 21:48:37;;;;;;;619.78;579.50;;;2.10;99.90;;;;;;12572993;28;20488;-37
2024/02/08 21:54:48;;;;;;;639.88;598.60;;;2.20;99.90;;;;;;12561333;28;20390;-36
2024/02/08 22:01:02;;;;;;;623.60;583.28;;;2.20;99.90;;;;;;12574624;28;20405;-37
2024/02/08 22:07:30;;;;;;;624.30;583.50;;;2.20;99.90;;;;;;12582508;28;20587;-35
2024/02/08 22:13:45;;;;;;;649.55;606.80;;;2.30;99.90;;;;;;12574757;28;20049;-36
2024/02/08 22:19:59;;;;;;;625.03;583.85;;;2.30;99.90;;;;;;12587776;28;20056;-36
2024/02/08 22:26:16;;;;;;;651.95;608.95;;;2.30;99.90;;;;;;12581093;28;20060;-37
2024/02/08 22:32:28;;;;;;;651.17;608.17;;;2.40;99.90;;;;;;12593046;28;20462;-37
2024/02/08 22:38:45;;;;;;;648.58;605.83;;;2.40;99.90;;;;;;12583325;28;20060;-36
2024/02/08 22:44:57;;;;;;;648.92;606.22;;;2.40;99.90;;;;;;12590307;28;20056;-37
2024/02/08 22:51:09;;;;;;;660.08;616.10;;;2.40;99.90;;;;;;12580391;28;20131;-36
2024/02/08 22:57:24;;;;;;;671.60;626.75;;;2.40;99.90;;;;;;12578592;28;20184;-36
2024/02/08 23:03:40;;;;;;;671.17;626.88;;;2.50;99.90;;;;;;12590412;28;20412;-37
2024/02/08 23:09:55;;;;;;;665.08;621.33;;;2.60;99.90;;;;;;12578033;28;20052;-35
2024/02/08 23:16:12;;;;;;;675.25;630.78;;;2.60;99.90;;;;;;12592477;28;20095;-37
2024/02/08 23:22:28;;;;;;;671.78;627.38;;;2.60;99.90;;;;;;12590894;28;20053;-36
2024/02/08 23:28:44;;;;;;;678.78;633.40;;;2.70;99.90;;;;;;12581395;28;20049;-36
2024/02/08 23:35:00;;;;;;;698.50;651.25;;;2.60;99.90;;;;;;12592816;28;20822;-36
2024/02/08 23:41:13;;;;;;;702.88;655.38;;;2.70;99.90;;;;;;12579759;28;20052;-36
2024/02/08 23:47:28;;;;;;;692.42;645.55;;;2.80;99.90;;;;;;12573809;28;20048;-36
2024/02/08 23:53:43;;;;;;;701.83;654.30;;;2.80;99.90;;;;;;12581269;28;20105;-37
2024/02/08 23:59:54;;;;;;;;;;;2.90;99.90;;;;;;12583196;28;20056;-37
